createdAt,value
2023-02-11T00:01:24.334Z,-3.58
2023-02-11T00:03:51.217Z,-3.62
2023-02-11T00:06:18.528Z,-3.69
2023-02-11T00:08:45.532Z,-3.53
2023-02-11T00:11:18.498Z,-3.45
2023-02-11T00:13:46.520Z,-3.56
2023-02-11T00:16:19.189Z,-3.58
2023-02-11T00:18:46.125Z,-3.58
2023-02-11T00:21:18.565Z,-3.55
2023-02-11T00:23:46.356Z,-3.63
2023-02-11T00:26:21.093Z,-3.70
2023-02-11T00:28:49.154Z,-3.70
2023-02-11T00:31:17.361Z,-3.82
2023-02-11T00:33:44.515Z,-3.88
2023-02-11T00:36:25.864Z,-3.96
2023-02-11T00:38:54.009Z,-4.12
2023-02-11T00:41:21.686Z,-4.10
2023-02-11T00:43:48.366Z,-4.06
2023-02-11T00:46:15.531Z,-4.04
2023-02-11T00:48:42.420Z,-3.91
2023-02-11T00:51:09.805Z,-3.69
2023-02-11T00:53:36.750Z,-3.75
2023-02-11T00:56:04.139Z,-3.67
2023-02-11T00:58:31.026Z,-3.61
2023-02-11T01:00:58.056Z,-3.58
2023-02-11T01:03:25.060Z,-3.56
2023-02-11T01:05:52.024Z,-3.56
2023-02-11T01:08:19.593Z,-3.62
2023-02-11T01:10:58.322Z,-3.81
2023-02-11T01:13:26.338Z,-4.34
2023-02-11T01:15:53.611Z,-4.41
2023-02-11T01:18:20.625Z,-4.29
2023-02-11T01:20:47.275Z,-4.25
2023-02-11T01:23:13.995Z,-4.16
2023-02-11T01:25:43.833Z,-4.10
2023-02-11T01:28:19.259Z,-4.13
2023-02-11T01:30:46.206Z,-4.14
2023-02-11T01:33:13.051Z,-4.27
2023-02-11T01:35:40.091Z,-4.41
2023-02-11T01:38:08.262Z,-4.41
2023-02-11T01:40:34.963Z,-4.54
2023-02-11T01:43:01.589Z,-4.61
2023-02-11T01:45:46.569Z,-4.42
2023-02-11T01:48:36.279Z,-4.43
2023-02-11T01:51:11.449Z,-4.28
2023-02-11T01:53:39.242Z,-4.38
2023-02-11T01:56:08.763Z,-4.37
2023-02-11T01:58:39.038Z,-4.31
2023-02-11T02:01:08.160Z,-4.27
2023-02-11T02:03:39.829Z,-4.35
2023-02-11T02:06:16.863Z,-4.66
2023-02-11T02:08:52.239Z,-4.92
2023-02-11T02:11:19.045Z,-4.74
2023-02-11T02:13:46.200Z,-4.38
2023-02-11T02:16:15.965Z,-4.41
2023-02-11T02:18:51.713Z,-4.32
2023-02-11T02:21:49.255Z,-4.46
2023-02-11T02:24:49.343Z,-4.30
2023-02-11T02:27:43.957Z,-4.42
2023-02-11T02:30:30.692Z,-4.60
2023-02-11T02:33:31.637Z,-4.47
2023-02-11T02:36:28.334Z,-4.55
2023-02-11T02:39:06.728Z,-4.63
2023-02-11T02:41:35.908Z,-4.74
2023-02-11T02:44:04.860Z,-4.63
2023-02-11T02:46:33.267Z,-4.36
2023-02-11T02:49:00.739Z,-4.30
2023-02-11T02:51:45.688Z,-4.48
2023-02-11T02:54:34.074Z,-4.36
2023-02-11T02:57:06.476Z,-4.51
2023-02-11T02:59:51.909Z,-4.50
2023-02-11T03:02:35.169Z,-4.63
2023-02-11T03:05:20.084Z,-4.69
2023-02-11T03:08:07.581Z,-5.13
2023-02-11T03:10:43.283Z,-5.09
2023-02-11T03:13:18.709Z,-4.96
2023-02-11T03:15:50.421Z,-5.17
2023-02-11T03:18:19.820Z,-5.26
2023-02-11T03:20:54.412Z,-5.23
2023-02-11T03:23:28.909Z,-5.07
2023-02-11T03:26:05.849Z,-4.87
2023-02-11T03:28:44.553Z,-4.80
2023-02-11T03:31:17.708Z,-4.96
2023-02-11T03:34:01.577Z,-4.92
2023-02-11T03:36:52.082Z,-4.88
2023-02-11T03:39:34.176Z,-4.75
2023-02-11T03:42:03.362Z,-4.71
2023-02-11T03:44:36.270Z,-4.54
2023-02-11T03:47:07.604Z,-4.39
2023-02-11T03:49:37.063Z,-4.68
2023-02-11T03:52:06.826Z,-4.99
2023-02-11T03:54:35.339Z,-5.06
2023-02-11T03:57:02.946Z,-4.94
2023-02-11T03:59:30.018Z,-4.84
2023-02-11T04:01:56.858Z,-4.86
2023-02-11T04:04:23.488Z,-4.85
2023-02-11T04:06:50.122Z,-4.79
2023-02-11T04:09:16.754Z,-4.92
2023-02-11T04:11:43.391Z,-4.73
2023-02-11T04:14:10.174Z,-4.66
2023-02-11T04:16:37.027Z,-5.00
2023-02-11T04:19:03.976Z,-5.01
2023-02-11T04:21:30.742Z,-5.09
2023-02-11T04:23:57.479Z,-5.07
2023-02-11T04:26:24.089Z,-5.00
2023-02-11T04:28:50.806Z,-5.02
2023-02-11T04:31:17.474Z,-5.05
2023-02-11T04:33:44.151Z,-5.14
2023-02-11T04:36:11.314Z,-5.27
2023-02-11T04:38:37.926Z,-5.39
2023-02-11T04:41:04.666Z,-5.26
2023-02-11T04:43:31.299Z,-5.14
2023-02-11T04:45:58.781Z,-5.38
2023-02-11T04:48:26.027Z,-5.29
2023-02-11T04:50:52.855Z,-5.41
2023-02-11T04:53:19.505Z,-5.30
2023-02-11T04:55:49.622Z,-5.32
2023-02-11T04:58:17.086Z,-5.84
2023-02-11T05:00:43.720Z,-5.70
2023-02-11T05:03:10.751Z,-5.57
2023-02-11T05:05:41.837Z,-5.37
2023-02-11T05:08:09.269Z,-5.60
2023-02-11T05:10:36.328Z,-5.42
2023-02-11T05:13:03.525Z,-5.37
2023-02-11T05:15:32.919Z,-5.54
2023-02-11T05:17:59.684Z,-5.46
2023-02-11T05:20:26.414Z,-5.54
2023-02-11T05:22:53.039Z,-5.51
2023-02-11T05:25:19.718Z,-5.30
2023-02-11T05:27:46.381Z,-5.52
2023-02-11T05:30:13.307Z,-5.68
2023-02-11T05:32:39.961Z,-5.59
2023-02-11T05:35:06.703Z,-5.78
2023-02-11T05:37:33.384Z,-5.77
2023-02-11T05:40:00.050Z,-6.44
2023-02-11T05:42:26.673Z,-6.57
2023-02-11T05:44:53.294Z,-6.43
2023-02-11T05:47:19.998Z,-6.16
2023-02-11T05:49:47.457Z,-6.06
2023-02-11T05:52:14.080Z,-5.87
2023-02-11T05:54:40.823Z,-6.08
2023-02-11T05:57:07.433Z,-5.93
2023-02-11T05:59:34.138Z,-5.79
2023-02-11T06:02:00.748Z,-5.77
2023-02-11T06:04:27.383Z,-5.82
2023-02-11T06:06:54.021Z,-5.87
2023-02-11T06:09:20.640Z,-5.87
2023-02-11T06:11:47.221Z,-5.70
2023-02-11T06:14:13.892Z,-5.76
2023-02-11T06:16:40.701Z,-5.77
2023-02-11T06:19:07.469Z,-5.78
2023-02-11T06:21:43.356Z,-5.74
2023-02-11T06:24:10.923Z,-5.73
2023-02-11T06:26:37.525Z,-5.71
2023-02-11T06:29:04.231Z,-6.27
2023-02-11T06:31:30.936Z,-6.12
2023-02-11T06:33:57.659Z,-5.68
2023-02-11T06:36:24.350Z,-5.66
2023-02-11T06:38:52.606Z,-5.83
2023-02-11T06:41:20.107Z,-5.76
2023-02-11T06:43:48.447Z,-5.64
2023-02-11T06:46:15.395Z,-5.73
2023-02-11T06:48:44.662Z,-5.77
2023-02-11T06:51:13.932Z,-5.80
2023-02-11T06:53:44.341Z,-5.48
2023-02-11T06:56:14.261Z,-5.60
2023-02-11T06:58:40.891Z,-5.62
2023-02-11T07:01:10.427Z,-5.24
2023-02-11T07:03:39.293Z,-5.03
2023-02-11T07:06:07.944Z,-4.76
2023-02-11T07:08:36.055Z,-4.94
2023-02-11T07:11:19.161Z,-5.02
2023-02-11T07:13:46.094Z,-4.71
2023-02-11T07:16:15.761Z,-4.56
2023-02-11T07:18:43.000Z,-4.53
2023-02-11T07:21:12.413Z,-4.88
2023-02-11T07:23:40.179Z,-5.02
2023-02-11T07:26:09.873Z,-5.40
2023-02-11T07:28:37.997Z,-5.31
2023-02-11T07:31:11.358Z,-4.61
2023-02-11T07:33:38.953Z,-4.32
2023-02-11T07:36:08.349Z,-3.74
2023-02-11T07:38:36.535Z,-3.53
2023-02-11T07:41:08.904Z,-3.98
2023-02-11T07:43:37.188Z,-3.88
2023-02-11T07:46:08.898Z,-3.84
2023-02-11T07:48:35.504Z,-4.19
2023-02-11T07:51:11.666Z,-3.54
2023-02-11T07:53:38.424Z,-3.74
2023-02-11T07:56:06.433Z,-3.21
2023-02-11T07:58:33.529Z,-3.23
2023-02-11T08:01:05.069Z,-3.14
2023-02-11T08:03:31.889Z,-3.35
2023-02-11T08:05:58.546Z,-2.98
2023-02-11T08:08:27.981Z,-3.53
2023-02-11T08:10:54.596Z,-3.23
2023-02-11T08:13:21.217Z,-2.93
2023-02-11T08:15:47.980Z,-2.53
2023-02-11T08:18:14.865Z,-2.83
2023-02-11T08:20:41.496Z,-3.49
2023-02-11T08:23:08.198Z,-3.26
2023-02-11T08:25:35.058Z,-3.17
2023-02-11T08:28:01.660Z,-3.09
2023-02-11T08:30:28.399Z,-2.70
2023-02-11T08:32:55.113Z,-2.57
2023-02-11T08:35:21.714Z,-2.44
2023-02-11T08:37:48.584Z,-2.99
2023-02-11T08:40:15.301Z,-2.46
2023-02-11T08:42:44.727Z,-2.26
2023-02-11T08:45:11.413Z,-2.32
2023-02-11T08:47:39.182Z,-2.06
2023-02-11T08:50:06.297Z,-2.28
2023-02-11T08:52:32.915Z,-2.64
2023-02-11T08:54:59.628Z,-2.28
2023-02-11T08:57:26.290Z,-2.11
2023-02-11T08:59:52.889Z,-1.61
2023-02-11T09:02:19.576Z,-2.18
2023-02-11T09:04:46.317Z,-1.77
2023-02-11T09:07:12.941Z,-1.71
2023-02-11T09:09:39.629Z,-1.84
2023-02-11T09:12:06.342Z,-1.49
2023-02-11T09:14:32.944Z,-1.40
2023-02-11T09:16:59.642Z,-1.34
2023-02-11T09:19:26.269Z,-1.41
2023-02-11T09:21:52.916Z,-1.03
2023-02-11T09:24:19.611Z,-0.83
2023-02-11T09:26:46.351Z,-0.98
2023-02-11T09:29:15.960Z,-1.23
2023-02-11T09:31:42.639Z,-1.07
2023-02-11T09:34:10.956Z,-0.62
2023-02-11T09:36:39.730Z,-0.06
2023-02-11T09:39:10.059Z,-0.27
2023-02-11T09:41:51.219Z,-0.58
2023-02-11T09:44:24.165Z,-0.42
2023-02-11T09:47:00.275Z,-0.13
2023-02-11T09:49:39.070Z,0.05
2023-02-11T09:52:11.497Z,0.53
2023-02-11T09:54:58.252Z,-0.11
2023-02-11T09:57:36.393Z,-0.13
2023-02-11T10:00:22.368Z,0.44
2023-02-11T10:03:24.368Z,0.60
2023-02-11T10:06:45.175Z,0.73
2023-02-11T10:09:30.538Z,0.86
2023-02-11T10:12:24.737Z,0.92
2023-02-11T10:15:30.260Z,1.14
2023-02-11T10:17:56.895Z,1.06
2023-02-11T10:20:31.374Z,1.21
2023-02-11T10:23:00.971Z,1.30
2023-02-11T10:25:51.327Z,1.25
2023-02-11T10:28:30.147Z,1.11
2023-02-11T10:31:16.584Z,1.31
2023-02-11T10:33:52.550Z,1.72
2023-02-11T10:36:22.669Z,1.57
2023-02-11T10:38:49.789Z,2.03
2023-02-11T10:41:22.679Z,2.03
2023-02-11T10:43:49.880Z,1.54
2023-02-11T10:46:22.419Z,1.58
2023-02-11T10:48:51.781Z,1.79
2023-02-11T10:51:22.279Z,1.99
2023-02-11T10:54:08.778Z,1.85
2023-02-11T10:56:52.030Z,1.67
2023-02-11T10:59:24.935Z,1.95
2023-02-11T11:01:54.681Z,1.98
2023-02-11T11:04:27.268Z,1.92
2023-02-11T11:06:54.179Z,2.33
2023-02-11T11:09:28.802Z,2.73
2023-02-11T11:11:55.514Z,2.81
2023-02-11T11:14:25.105Z,2.90
2023-02-11T11:16:57.052Z,2.71
2023-02-11T11:19:25.277Z,2.63
2023-02-11T11:21:54.330Z,2.62
2023-02-11T11:24:40.326Z,2.96
2023-02-11T11:27:07.157Z,3.14
2023-02-11T11:29:48.263Z,3.34
2023-02-11T11:32:25.721Z,2.67
2023-02-11T11:34:59.761Z,2.37
2023-02-11T11:37:31.539Z,2.41
2023-02-11T11:40:11.537Z,2.23
2023-02-11T11:42:39.779Z,2.70
2023-02-11T11:45:15.623Z,2.94
2023-02-11T11:47:47.418Z,2.80
2023-02-11T11:50:26.097Z,2.82
2023-02-11T11:53:14.102Z,2.82
2023-02-11T11:55:59.569Z,2.91
2023-02-11T11:58:30.342Z,2.77
2023-02-11T12:01:11.499Z,3.18
2023-02-11T12:04:05.744Z,3.33
2023-02-11T12:06:44.635Z,3.53
2023-02-11T12:09:29.338Z,3.55
2023-02-11T12:12:02.038Z,4.14
2023-02-11T12:14:41.803Z,4.12
2023-02-11T12:17:27.084Z,3.72
2023-02-11T12:20:21.056Z,3.61
2023-02-11T12:23:00.350Z,3.40
2023-02-11T12:25:35.692Z,3.52
2023-02-11T12:28:35.748Z,3.63
2023-02-11T12:31:13.986Z,3.93
2023-02-11T12:33:45.012Z,4.03
2023-02-11T12:36:26.569Z,3.96
2023-02-11T12:39:32.876Z,3.67
2023-02-11T12:42:20.706Z,4.04
2023-02-11T12:44:50.026Z,4.12
2023-02-11T12:47:31.479Z,4.20
2023-02-11T12:50:13.403Z,4.15
2023-02-11T12:53:10.699Z,4.47
2023-02-11T12:55:43.514Z,4.59
2023-02-11T12:58:29.648Z,4.98
2023-02-11T13:01:20.719Z,5.15
2023-02-11T13:03:55.681Z,5.02
2023-02-11T13:06:29.515Z,5.21
2023-02-11T13:09:03.602Z,5.58
2023-02-11T13:11:40.037Z,5.47
2023-02-11T13:14:28.476Z,5.42
2023-02-11T13:16:56.288Z,5.31
2023-02-11T13:19:31.643Z,5.43
2023-02-11T13:22:11.308Z,5.39
2023-02-11T13:24:44.855Z,5.72
2023-02-11T13:27:24.541Z,5.73
2023-02-11T13:30:22.183Z,6.17
2023-02-11T13:32:54.975Z,5.89
2023-02-11T13:35:40.196Z,6.30
2023-02-11T13:38:24.889Z,6.08
2023-02-11T13:41:04.285Z,5.63
2023-02-11T13:43:33.889Z,5.66
2023-02-11T13:46:03.259Z,5.43
2023-02-11T13:48:32.855Z,5.55
2023-02-11T13:51:09.034Z,5.92
2023-02-11T13:53:50.728Z,5.58
2023-02-11T13:56:32.897Z,5.79
2023-02-11T13:59:03.232Z,5.62
2023-02-11T14:01:59.021Z,5.63
2023-02-11T14:04:30.870Z,5.40
2023-02-11T14:07:29.785Z,5.09
2023-02-11T14:09:56.367Z,5.14
2023-02-11T14:12:30.751Z,5.03
2023-02-11T14:15:02.367Z,5.02
2023-02-11T14:17:33.155Z,5.24
2023-02-11T14:20:07.475Z,5.16
2023-02-11T14:22:49.646Z,4.93
2023-02-11T14:25:23.715Z,5.30
2023-02-11T14:27:58.510Z,5.23
2023-02-11T14:31:03.664Z,4.95
2023-02-11T14:33:42.518Z,5.06
2023-02-11T14:36:36.758Z,4.90
2023-02-11T14:39:19.623Z,5.10
2023-02-11T14:41:49.172Z,5.24
2023-02-11T14:44:25.680Z,4.80
2023-02-11T14:46:54.594Z,4.76
2023-02-11T14:49:31.355Z,4.96
2023-02-11T14:52:20.995Z,4.93
2023-02-11T14:54:50.166Z,4.89
2023-02-11T14:57:19.687Z,4.97
2023-02-11T15:00:02.212Z,4.79
2023-02-11T15:02:34.563Z,4.74
2023-02-11T15:05:18.056Z,4.79
2023-02-11T15:07:50.736Z,4.61
2023-02-11T15:10:36.773Z,4.66
2023-02-11T15:13:05.200Z,4.86
2023-02-11T15:15:33.115Z,4.96
2023-02-11T15:18:03.542Z,5.15
2023-02-11T15:20:34.012Z,4.98
2023-02-11T15:23:08.433Z,4.74
2023-02-11T15:25:42.997Z,4.77
2023-02-11T15:28:31.409Z,4.87
2023-02-11T15:31:16.013Z,4.75
2023-02-11T15:33:43.457Z,4.34
2023-02-11T15:36:15.286Z,4.48
2023-02-11T15:38:42.179Z,4.83
2023-02-11T15:41:37.899Z,4.36
2023-02-11T15:44:04.675Z,4.48
2023-02-11T15:46:37.800Z,4.09
2023-02-11T15:49:05.064Z,4.79
2023-02-11T15:51:37.634Z,4.35
2023-02-11T15:54:19.834Z,4.30
2023-02-11T15:56:50.727Z,4.20
2023-02-11T15:59:18.647Z,3.75
2023-02-11T16:01:47.589Z,3.88
2023-02-11T16:04:24.674Z,4.18
2023-02-11T16:06:52.022Z,4.16
2023-02-11T16:09:18.548Z,4.28
2023-02-11T16:11:47.863Z,4.29
2023-02-11T16:14:24.498Z,4.30
2023-02-11T16:16:55.126Z,4.26
2023-02-11T16:19:25.832Z,4.29
2023-02-11T16:21:54.088Z,4.03
2023-02-11T16:24:25.723Z,4.50
2023-02-11T16:26:55.940Z,3.93
2023-02-11T16:29:26.431Z,3.46
2023-02-11T16:32:04.682Z,3.85
2023-02-11T16:34:31.333Z,3.89
2023-02-11T16:36:57.976Z,3.94
2023-02-11T16:39:26.065Z,4.01
2023-02-11T16:41:54.201Z,4.07
2023-02-11T16:44:20.814Z,3.42
2023-02-11T16:46:47.993Z,3.62
2023-02-11T16:49:18.154Z,3.88
2023-02-11T16:51:49.086Z,3.26
2023-02-11T16:54:17.263Z,3.28
2023-02-11T16:56:44.130Z,3.45
2023-02-11T16:59:10.951Z,3.61
2023-02-11T17:01:42.041Z,3.40
2023-02-11T17:04:16.727Z,3.11
2023-02-11T17:06:43.374Z,2.90
2023-02-11T17:09:28.407Z,2.95
2023-02-11T17:11:56.825Z,3.16
2023-02-11T17:14:23.410Z,3.30
2023-02-11T17:16:50.131Z,3.43
2023-02-11T17:19:22.399Z,3.41
2023-02-11T17:21:51.802Z,3.30
2023-02-11T17:24:20.008Z,3.72
2023-02-11T17:26:46.872Z,3.50
2023-02-11T17:29:16.620Z,3.50
2023-02-11T17:31:43.677Z,3.53
2023-02-11T17:34:10.623Z,3.76
2023-02-11T17:36:37.461Z,3.14
2023-02-11T17:39:07.791Z,3.41
2023-02-11T17:41:37.387Z,3.76
2023-02-11T17:44:04.625Z,3.36
2023-02-11T17:46:31.266Z,3.58
2023-02-11T17:48:59.032Z,3.97
2023-02-11T17:51:31.049Z,4.15
2023-02-11T17:54:00.718Z,3.98
2023-02-11T17:56:27.906Z,3.65
2023-02-11T17:58:54.499Z,3.63
2023-02-11T18:01:21.240Z,4.09
2023-02-11T18:03:47.895Z,4.65
2023-02-11T18:06:14.638Z,3.17
2023-02-11T18:08:41.271Z,2.83
2023-02-11T18:11:12.512Z,2.82
2023-02-11T18:13:39.143Z,3.26
2023-02-11T18:16:06.270Z,2.78
2023-02-11T18:18:32.889Z,2.95
2023-02-11T18:21:01.639Z,3.53
2023-02-11T18:23:28.692Z,3.53
2023-02-11T18:25:55.329Z,3.30
2023-02-11T18:28:22.125Z,3.26
2023-02-11T18:30:48.835Z,3.38
2023-02-11T18:33:15.464Z,3.62
2023-02-11T18:35:45.245Z,3.78
2023-02-11T18:38:13.052Z,2.75
2023-02-11T18:40:40.619Z,3.17
2023-02-11T18:43:07.663Z,2.76
2023-02-11T18:45:34.339Z,2.05
2023-02-11T18:48:00.957Z,2.48
2023-02-11T18:50:27.845Z,2.74
2023-02-11T18:52:54.540Z,2.94
2023-02-11T18:55:23.528Z,3.17
2023-02-11T18:57:50.351Z,3.21
2023-02-11T19:00:17.387Z,3.02
2023-02-11T19:02:44.175Z,2.96
2023-02-11T19:05:11.442Z,2.53
2023-02-11T19:07:38.148Z,2.53
2023-02-11T19:10:05.416Z,3.05
2023-02-11T19:12:32.028Z,2.45
2023-02-11T19:14:59.143Z,3.04
2023-02-11T19:17:25.831Z,2.72
2023-02-11T19:19:53.070Z,2.69
2023-02-11T19:22:19.778Z,2.62
2023-02-11T19:24:46.385Z,2.84
2023-02-11T19:27:13.096Z,2.69
2023-02-11T19:29:39.826Z,2.83
2023-02-11T19:32:06.918Z,2.59
2023-02-11T19:34:34.414Z,3.06
2023-02-11T19:37:00.987Z,3.07
2023-02-11T19:39:27.844Z,2.96
2023-02-11T19:41:54.475Z,2.99
2023-02-11T19:44:21.400Z,2.67
2023-02-11T19:46:48.217Z,2.57
2023-02-11T19:49:16.758Z,3.02
2023-02-11T19:51:46.640Z,2.90
2023-02-11T19:54:13.309Z,2.56
2023-02-11T19:56:39.907Z,2.95
2023-02-11T19:59:06.535Z,2.80
2023-02-11T20:01:33.188Z,3.02
2023-02-11T20:03:59.791Z,3.68
2023-02-11T20:06:29.507Z,3.59
2023-02-11T20:09:00.793Z,3.14
2023-02-11T20:11:29.631Z,3.53
2023-02-11T20:13:57.042Z,3.35
2023-02-11T20:16:40.661Z,3.14
2023-02-11T20:19:07.706Z,3.40
2023-02-11T20:21:34.328Z,3.13
2023-02-11T20:24:00.949Z,2.62
2023-02-11T20:26:32.382Z,3.00
2023-02-11T20:29:00.323Z,3.19
2023-02-11T20:31:29.880Z,3.05
2023-02-11T20:33:56.553Z,3.40
2023-02-11T20:36:29.232Z,2.71
2023-02-11T20:38:55.816Z,2.60
2023-02-11T20:41:25.705Z,2.81
2023-02-11T20:43:54.650Z,2.28
2023-02-11T20:46:26.387Z,2.27
2023-02-11T20:48:54.887Z,2.61
2023-02-11T20:51:30.620Z,3.10
2023-02-11T20:53:57.391Z,3.11
2023-02-11T20:56:26.801Z,2.41
2023-02-11T20:58:53.618Z,2.66
2023-02-11T21:01:25.206Z,2.87
2023-02-11T21:04:03.710Z,2.89
2023-02-11T21:06:35.558Z,3.40
2023-02-11T21:09:03.879Z,3.18
2023-02-11T21:11:30.568Z,3.22
2023-02-11T21:13:57.288Z,3.06
2023-02-11T21:16:24.459Z,3.16
2023-02-11T21:18:51.760Z,3.04
2023-02-11T21:21:19.208Z,3.18
2023-02-11T21:23:47.354Z,2.94
2023-02-11T21:26:15.533Z,3.02
2023-02-11T21:28:42.281Z,3.00
2023-02-11T21:31:09.890Z,3.02
2023-02-11T21:33:36.583Z,3.09
2023-02-11T21:36:04.663Z,3.05
2023-02-11T21:38:31.266Z,3.30
2023-02-11T21:41:05.602Z,3.14
2023-02-11T21:43:32.807Z,3.10
2023-02-11T21:46:01.220Z,3.09
2023-02-11T21:48:27.829Z,3.07
2023-02-11T21:50:54.421Z,3.00
2023-02-11T21:53:21.197Z,2.98
2023-02-11T21:55:47.965Z,2.93
2023-02-11T21:58:14.548Z,2.92
2023-02-11T22:00:41.303Z,3.06
2023-02-11T22:03:08.123Z,2.97
2023-02-11T22:05:34.856Z,3.03
2023-02-11T22:08:01.462Z,2.91
2023-02-11T22:10:28.073Z,3.03
2023-02-11T22:12:54.723Z,3.03
2023-02-11T22:15:21.340Z,2.90
2023-02-11T22:17:47.948Z,2.76
2023-02-11T22:20:15.516Z,2.65
2023-02-11T22:22:42.103Z,2.78
2023-02-11T22:25:08.734Z,2.64
2023-02-11T22:27:35.350Z,2.61
2023-02-11T22:30:01.997Z,2.50
2023-02-11T22:32:28.686Z,2.69
2023-02-11T22:34:55.328Z,2.72
2023-02-11T22:37:21.935Z,2.68
2023-02-11T22:39:48.784Z,2.76
2023-02-11T22:42:15.439Z,2.70
2023-02-11T22:44:42.059Z,2.46
2023-02-11T22:47:08.737Z,2.36
2023-02-11T22:49:35.371Z,2.34
2023-02-11T22:52:02.038Z,2.37
2023-02-11T22:54:28.781Z,2.37
2023-02-11T22:56:55.370Z,2.39
2023-02-11T22:59:22.218Z,2.41
2023-02-11T23:01:49.064Z,2.41
2023-02-11T23:04:16.975Z,2.41
2023-02-11T23:06:43.816Z,2.41
2023-02-11T23:09:11.154Z,2.40
2023-02-11T23:11:38.283Z,2.44
2023-02-11T23:14:05.633Z,2.31
2023-02-11T23:16:34.066Z,2.24
2023-02-11T23:19:03.763Z,2.36
2023-02-11T23:21:32.556Z,2.38
2023-02-11T23:24:05.044Z,2.41
2023-02-11T23:26:31.718Z,2.51
2023-02-11T23:28:59.265Z,2.44
2023-02-11T23:31:30.005Z,2.50
2023-02-11T23:33:56.780Z,2.54
2023-02-11T23:36:23.835Z,2.38
2023-02-11T23:38:50.701Z,2.29
2023-02-11T23:41:17.761Z,2.32
2023-02-11T23:43:44.364Z,2.29
2023-02-11T23:46:11.462Z,2.22
2023-02-11T23:48:38.110Z,2.23
2023-02-11T23:51:04.851Z,2.23
2023-02-11T23:53:31.465Z,2.39
2023-02-11T23:55:58.525Z,2.22
2023-02-11T23:58:25.242Z,2.24
